sensor_id;sensor_type;location;lat;lon;timestamp;P1;durP1;ratioP1;P2;durP2;ratioP2
34236;SDS011;20501;45.956;13.632;2023-04-03T00:01:41;5.85;;;2.80;;
34236;SDS011;20501;45.956;13.632;2023-04-03T00:04:07;7.88;;;2.78;;
34236;SDS011;20501;45.956;13.632;2023-04-03T00:06:32;4.07;;;2.30;;
34236;SDS011;20501;45.956;13.632;2023-04-03T00:08:58;4.35;;;2.78;;
34236;SDS011;20501;45.956;13.632;2023-04-03T00:11:24;5.57;;;2.67;;
34236;SDS011;20501;45.956;13.632;2023-04-03T00:13:50;4.55;;;2.58;;
34236;SDS011;20501;45.956;13.632;2023-04-03T00:16:15;4.38;;;1.90;;
34236;SDS011;20501;45.956;13.632;2023-04-03T00:18:41;3.25;;;2.00;;
34236;SDS011;20501;45.956;13.632;2023-04-03T00:21:06;3.97;;;1.63;;
34236;SDS011;20501;45.956;13.632;2023-04-03T00:23:32;3.37;;;1.80;;
34236;SDS011;20501;45.956;13.632;2023-04-03T00:25:59;3.67;;;1.90;;
34236;SDS011;20501;45.956;13.632;2023-04-03T00:28:25;2.65;;;1.67;;
34236;SDS011;20501;45.956;13.632;2023-04-03T00:30:51;3.28;;;1.55;;
34236;SDS011;20501;45.956;13.632;2023-04-03T00:33:17;2.47;;;1.35;;
34236;SDS011;20501;45.956;13.632;2023-04-03T00:35:46;2.08;;;1.15;;
34236;SDS011;20501;45.956;13.632;2023-04-03T00:38:12;2.53;;;1.60;;
34236;SDS011;20501;45.956;13.632;2023-04-03T00:40:38;1.63;;;1.10;;
34236;SDS011;20501;45.956;13.632;2023-04-03T00:43:11;1.20;;;1.00;;
34236;SDS011;20501;45.956;13.632;2023-04-03T00:45:45;1.30;;;1.00;;
34236;SDS011;20501;45.956;13.632;2023-04-03T00:48:17;2.00;;;1.17;;
34236;SDS011;20501;45.956;13.632;2023-04-03T00:50:46;2.45;;;0.93;;
34236;SDS011;20501;45.956;13.632;2023-04-03T00:53:13;0.77;;;0.77;;
34236;SDS011;20501;45.956;13.632;2023-04-03T00:55:43;1.13;;;0.93;;
34236;SDS011;20501;45.956;13.632;2023-04-03T00:58:11;1.17;;;1.00;;
34236;SDS011;20501;45.956;13.632;2023-04-03T01:00:38;1.10;;;0.80;;
34236;SDS011;20501;45.956;13.632;2023-04-03T01:03:07;1.23;;;0.93;;
34236;SDS011;20501;45.956;13.632;2023-04-03T01:05:32;0.77;;;0.73;;
34236;SDS011;20501;45.956;13.632;2023-04-03T01:07:58;1.00;;;0.77;;
34236;SDS011;20501;45.956;13.632;2023-04-03T01:10:25;1.55;;;1.20;;
34236;SDS011;20501;45.956;13.632;2023-04-03T01:12:51;0.88;;;0.77;;
34236;SDS011;20501;45.956;13.632;2023-04-03T01:15:21;2.00;;;1.08;;
34236;SDS011;20501;45.956;13.632;2023-04-03T01:17:53;1.25;;;0.90;;
34236;SDS011;20501;45.956;13.632;2023-04-03T01:28:02;0.80;;;0.63;;
34236;SDS011;20501;45.956;13.632;2023-04-03T01:30:36;1.27;;;0.85;;
34236;SDS011;20501;45.956;13.632;2023-04-03T01:33:08;1.42;;;1.08;;
34236;SDS011;20501;45.956;13.632;2023-04-03T01:35:33;1.13;;;0.90;;
34236;SDS011;20501;45.956;13.632;2023-04-03T01:37:58;0.93;;;0.90;;
34236;SDS011;20501;45.956;13.632;2023-04-03T01:40:24;1.45;;;0.90;;
34236;SDS011;20501;45.956;13.632;2023-04-03T01:42:51;0.93;;;0.80;;
34236;SDS011;20501;45.956;13.632;2023-04-03T01:45:16;1.52;;;1.05;;
34236;SDS011;20501;45.956;13.632;2023-04-03T01:47:42;1.17;;;1.08;;
34236;SDS011;20501;45.956;13.632;2023-04-03T01:50:07;1.17;;;1.08;;
34236;SDS011;20501;45.956;13.632;2023-04-03T01:52:33;1.38;;;0.80;;
34236;SDS011;20501;45.956;13.632;2023-04-03T01:54:59;0.85;;;0.85;;
34236;SDS011;20501;45.956;13.632;2023-04-03T01:57:25;1.25;;;0.90;;
34236;SDS011;20501;45.956;13.632;2023-04-03T01:59:50;2.30;;;0.90;;
34236;SDS011;20501;45.956;13.632;2023-04-03T02:02:16;1.00;;;0.80;;
34236;SDS011;20501;45.956;13.632;2023-04-03T02:04:42;0.85;;;0.85;;
34236;SDS011;20501;45.956;13.632;2023-04-03T02:07:07;0.98;;;0.80;;
34236;SDS011;20501;45.956;13.632;2023-04-03T02:09:33;1.88;;;1.00;;
34236;SDS011;20501;45.956;13.632;2023-04-03T02:11:58;1.25;;;0.93;;
34236;SDS011;20501;45.956;13.632;2023-04-03T02:14:23;1.40;;;0.90;;
34236;SDS011;20501;45.956;13.632;2023-04-03T02:16:49;1.98;;;1.45;;
34236;SDS011;20501;45.956;13.632;2023-04-03T02:19:15;1.00;;;0.90;;
34236;SDS011;20501;45.956;13.632;2023-04-03T02:21:41;1.77;;;1.10;;
34236;SDS011;20501;45.956;13.632;2023-04-03T02:24:06;2.22;;;1.00;;
34236;SDS011;20501;45.956;13.632;2023-04-03T02:26:32;1.20;;;1.10;;
34236;SDS011;20501;45.956;13.632;2023-04-03T02:28:57;1.45;;;1.15;;
34236;SDS011;20501;45.956;13.632;2023-04-03T02:31:23;1.92;;;1.10;;
34236;SDS011;20501;45.956;13.632;2023-04-03T02:33:49;2.90;;;1.25;;
34236;SDS011;20501;45.956;13.632;2023-04-03T02:36:15;1.20;;;1.10;;
34236;SDS011;20501;45.956;13.632;2023-04-03T02:38:40;2.38;;;1.13;;
34236;SDS011;20501;45.956;13.632;2023-04-03T02:41:07;1.42;;;1.27;;
34236;SDS011;20501;45.956;13.632;2023-04-03T02:43:34;2.08;;;1.13;;
34236;SDS011;20501;45.956;13.632;2023-04-03T02:46:00;1.73;;;1.40;;
34236;SDS011;20501;45.956;13.632;2023-04-03T02:48:25;3.28;;;1.20;;
34236;SDS011;20501;45.956;13.632;2023-04-03T02:50:51;1.58;;;1.10;;
34236;SDS011;20501;45.956;13.632;2023-04-03T02:53:17;1.70;;;1.05;;
34236;SDS011;20501;45.956;13.632;2023-04-03T02:55:43;3.05;;;1.10;;
34236;SDS011;20501;45.956;13.632;2023-04-03T02:58:09;1.73;;;1.60;;
34236;SDS011;20501;45.956;13.632;2023-04-03T03:00:35;2.05;;;1.02;;
34236;SDS011;20501;45.956;13.632;2023-04-03T03:03:00;1.92;;;1.15;;
34236;SDS011;20501;45.956;13.632;2023-04-03T03:05:26;1.70;;;1.00;;
34236;SDS011;20501;45.956;13.632;2023-04-03T03:07:52;1.52;;;1.30;;
34236;SDS011;20501;45.956;13.632;2023-04-03T03:10:18;1.15;;;1.05;;
34236;SDS011;20501;45.956;13.632;2023-04-03T03:12:43;1.77;;;1.10;;
34236;SDS011;20501;45.956;13.632;2023-04-03T03:15:09;3.45;;;1.10;;
34236;SDS011;20501;45.956;13.632;2023-04-03T03:17:35;1.35;;;1.05;;
34236;SDS011;20501;45.956;13.632;2023-04-03T03:20:01;1.52;;;1.27;;
34236;SDS011;20501;45.956;13.632;2023-04-03T03:22:27;3.28;;;1.20;;
34236;SDS011;20501;45.956;13.632;2023-04-03T03:24:53;1.25;;;1.15;;
34236;SDS011;20501;45.956;13.632;2023-04-03T03:27:19;1.60;;;1.40;;
34236;SDS011;20501;45.956;13.632;2023-04-03T03:29:45;1.67;;;1.38;;
34236;SDS011;20501;45.956;13.632;2023-04-03T03:32:10;2.22;;;1.70;;
34236;SDS011;20501;45.956;13.632;2023-04-03T03:34:36;1.35;;;1.10;;
34236;SDS011;20501;45.956;13.632;2023-04-03T03:37:01;1.55;;;1.42;;
34236;SDS011;20501;45.956;13.632;2023-04-03T03:39:26;1.20;;;1.00;;
34236;SDS011;20501;45.956;13.632;2023-04-03T03:41:53;2.50;;;1.63;;
34236;SDS011;20501;45.956;13.632;2023-04-03T03:44:19;2.25;;;1.20;;
34236;SDS011;20501;45.956;13.632;2023-04-03T03:46:44;2.73;;;1.60;;
34236;SDS011;20501;45.956;13.632;2023-04-03T03:49:10;1.65;;;1.30;;
34236;SDS011;20501;45.956;13.632;2023-04-03T03:51:36;2.85;;;1.83;;
34236;SDS011;20501;45.956;13.632;2023-04-03T03:54:02;3.65;;;1.75;;
34236;SDS011;20501;45.956;13.632;2023-04-03T03:56:28;3.13;;;1.85;;
34236;SDS011;20501;45.956;13.632;2023-04-03T03:58:54;2.25;;;1.55;;
34236;SDS011;20501;45.956;13.632;2023-04-03T04:01:21;1.42;;;1.30;;
34236;SDS011;20501;45.956;13.632;2023-04-03T04:03:47;1.63;;;1.52;;
34236;SDS011;20501;45.956;13.632;2023-04-03T04:06:13;2.33;;;1.60;;
34236;SDS011;20501;45.956;13.632;2023-04-03T04:08:38;2.58;;;1.48;;
34236;SDS011;20501;45.956;13.632;2023-04-03T04:11:04;3.30;;;1.98;;
34236;SDS011;20501;45.956;13.632;2023-04-03T04:13:30;3.10;;;1.92;;
34236;SDS011;20501;45.956;13.632;2023-04-03T04:15:55;2.38;;;1.65;;
34236;SDS011;20501;45.956;13.632;2023-04-03T04:18:20;2.90;;;1.90;;
34236;SDS011;20501;45.956;13.632;2023-04-03T04:20:47;2.97;;;2.25;;
34236;SDS011;20501;45.956;13.632;2023-04-03T04:23:13;2.40;;;1.70;;
34236;SDS011;20501;45.956;13.632;2023-04-03T04:25:38;2.13;;;1.58;;
34236;SDS011;20501;45.956;13.632;2023-04-03T04:28:04;3.53;;;2.63;;
34236;SDS011;20501;45.956;13.632;2023-04-03T04:30:30;3.13;;;2.03;;
34236;SDS011;20501;45.956;13.632;2023-04-03T04:32:55;2.28;;;1.67;;
34236;SDS011;20501;45.956;13.632;2023-04-03T04:35:21;2.33;;;1.98;;
34236;SDS011;20501;45.956;13.632;2023-04-03T04:37:46;2.13;;;1.90;;
34236;SDS011;20501;45.956;13.632;2023-04-03T04:40:11;2.50;;;1.90;;
34236;SDS011;20501;45.956;13.632;2023-04-03T04:42:37;2.55;;;1.80;;
34236;SDS011;20501;45.956;13.632;2023-04-03T04:45:03;2.47;;;1.80;;
34236;SDS011;20501;45.956;13.632;2023-04-03T04:47:28;4.80;;;2.08;;
34236;SDS011;20501;45.956;13.632;2023-04-03T04:49:54;3.00;;;2.30;;
34236;SDS011;20501;45.956;13.632;2023-04-03T04:52:20;4.68;;;2.08;;
34236;SDS011;20501;45.956;13.632;2023-04-03T04:54:46;2.50;;;1.98;;
34236;SDS011;20501;45.956;13.632;2023-04-03T04:57:11;2.03;;;1.83;;
34236;SDS011;20501;45.956;13.632;2023-04-03T04:59:36;3.25;;;1.98;;
34236;SDS011;20501;45.956;13.632;2023-04-03T05:02:02;2.90;;;2.25;;
34236;SDS011;20501;45.956;13.632;2023-04-03T05:04:27;2.58;;;1.90;;
34236;SDS011;20501;45.956;13.632;2023-04-03T05:06:53;2.70;;;2.00;;
34236;SDS011;20501;45.956;13.632;2023-04-03T05:09:18;4.13;;;2.22;;
34236;SDS011;20501;45.956;13.632;2023-04-03T05:11:45;2.30;;;1.70;;
34236;SDS011;20501;45.956;13.632;2023-04-03T05:14:11;2.10;;;1.67;;
34236;SDS011;20501;45.956;13.632;2023-04-03T05:16:36;2.15;;;1.90;;
34236;SDS011;20501;45.956;13.632;2023-04-03T05:19:02;4.80;;;2.05;;
34236;SDS011;20501;45.956;13.632;2023-04-03T05:21:27;3.58;;;2.65;;
34236;SDS011;20501;45.956;13.632;2023-04-03T05:23:57;2.85;;;1.88;;
34236;SDS011;20501;45.956;13.632;2023-04-03T05:26:23;2.97;;;2.20;;
34236;SDS011;20501;45.956;13.632;2023-04-03T05:28:48;1.98;;;1.75;;
34236;SDS011;20501;45.956;13.632;2023-04-03T05:31:14;2.10;;;1.52;;
34236;SDS011;20501;45.956;13.632;2023-04-03T05:33:40;4.15;;;1.98;;
34236;SDS011;20501;45.956;13.632;2023-04-03T05:36:05;5.32;;;1.52;;
34236;SDS011;20501;45.956;13.632;2023-04-03T05:38:31;2.60;;;1.73;;
34236;SDS011;20501;45.956;13.632;2023-04-03T05:40:57;4.75;;;2.53;;
34236;SDS011;20501;45.956;13.632;2023-04-03T05:43:23;2.08;;;1.88;;
34236;SDS011;20501;45.956;13.632;2023-04-03T05:45:48;3.17;;;1.90;;
34236;SDS011;20501;45.956;13.632;2023-04-03T05:48:13;3.00;;;2.00;;
34236;SDS011;20501;45.956;13.632;2023-04-03T05:50:39;3.20;;;1.92;;
34236;SDS011;20501;45.956;13.632;2023-04-03T05:53:06;3.80;;;1.70;;
34236;SDS011;20501;45.956;13.632;2023-04-03T05:55:34;3.28;;;1.75;;
34236;SDS011;20501;45.956;13.632;2023-04-03T05:57:59;2.50;;;1.70;;
34236;SDS011;20501;45.956;13.632;2023-04-03T06:00:25;2.22;;;1.48;;
34236;SDS011;20501;45.956;13.632;2023-04-03T06:02:50;5.22;;;2.20;;
34236;SDS011;20501;45.956;13.632;2023-04-03T06:05:15;4.25;;;2.10;;
34236;SDS011;20501;45.956;13.632;2023-04-03T06:07:41;3.72;;;1.90;;
34236;SDS011;20501;45.956;13.632;2023-04-03T06:10:07;3.97;;;2.42;;
34236;SDS011;20501;45.956;13.632;2023-04-03T06:14:59;4.53;;;1.90;;
34236;SDS011;20501;45.956;13.632;2023-04-03T06:17:24;2.72;;;1.83;;
34236;SDS011;20501;45.956;13.632;2023-04-03T06:19:50;5.32;;;2.05;;
34236;SDS011;20501;45.956;13.632;2023-04-03T06:22:15;3.22;;;1.77;;
34236;SDS011;20501;45.956;13.632;2023-04-03T06:24:41;2.95;;;1.90;;
34236;SDS011;20501;45.956;13.632;2023-04-03T06:27:06;2.17;;;1.90;;
34236;SDS011;20501;45.956;13.632;2023-04-03T06:29:32;3.33;;;2.10;;
34236;SDS011;20501;45.956;13.632;2023-04-03T06:31:57;3.67;;;1.88;;
34236;SDS011;20501;45.956;13.632;2023-04-03T06:34:23;2.70;;;1.88;;
34236;SDS011;20501;45.956;13.632;2023-04-03T06:36:48;3.92;;;1.95;;
34236;SDS011;20501;45.956;13.632;2023-04-03T06:39:16;3.67;;;2.10;;
34236;SDS011;20501;45.956;13.632;2023-04-03T06:41:47;3.40;;;1.85;;
34236;SDS011;20501;45.956;13.632;2023-04-03T06:44:13;3.00;;;2.10;;
34236;SDS011;20501;45.956;13.632;2023-04-03T06:46:40;2.50;;;2.17;;
34236;SDS011;20501;45.956;13.632;2023-04-03T06:49:06;4.38;;;1.88;;
34236;SDS011;20501;45.956;13.632;2023-04-03T06:51:35;5.70;;;2.38;;
34236;SDS011;20501;45.956;13.632;2023-04-03T06:54:02;4.20;;;1.85;;
34236;SDS011;20501;45.956;13.632;2023-04-03T06:56:27;4.68;;;1.80;;
34236;SDS011;20501;45.956;13.632;2023-04-03T06:58:54;3.25;;;2.08;;
34236;SDS011;20501;45.956;13.632;2023-04-03T07:01:20;2.58;;;1.90;;
34236;SDS011;20501;45.956;13.632;2023-04-03T07:03:46;8.95;;;2.63;;
34236;SDS011;20501;45.956;13.632;2023-04-03T07:06:13;5.68;;;2.20;;
34236;SDS011;20501;45.956;13.632;2023-04-03T07:08:40;3.08;;;1.80;;
34236;SDS011;20501;45.956;13.632;2023-04-03T07:11:07;2.85;;;1.75;;
34236;SDS011;20501;45.956;13.632;2023-04-03T07:13:33;2.75;;;1.88;;
34236;SDS011;20501;45.956;13.632;2023-04-03T07:15:58;2.60;;;1.88;;
34236;SDS011;20501;45.956;13.632;2023-04-03T07:18:24;4.10;;;2.05;;
34236;SDS011;20501;45.956;13.632;2023-04-03T07:20:50;2.55;;;2.10;;
34236;SDS011;20501;45.956;13.632;2023-04-03T07:23:16;4.72;;;1.95;;
34236;SDS011;20501;45.956;13.632;2023-04-03T07:25:42;3.42;;;2.30;;
34236;SDS011;20501;45.956;13.632;2023-04-03T07:28:12;2.67;;;2.00;;
34236;SDS011;20501;45.956;13.632;2023-04-03T07:33:14;2.47;;;1.35;;
34236;SDS011;20501;45.956;13.632;2023-04-03T07:35:42;4.05;;;1.88;;
34236;SDS011;20501;45.956;13.632;2023-04-03T07:38:08;3.05;;;1.65;;
34236;SDS011;20501;45.956;13.632;2023-04-03T07:40:34;2.38;;;1.77;;
34236;SDS011;20501;45.956;13.632;2023-04-03T07:43:01;5.93;;;1.90;;
34236;SDS011;20501;45.956;13.632;2023-04-03T07:45:27;2.85;;;1.98;;
34236;SDS011;20501;45.956;13.632;2023-04-03T07:47:53;6.25;;;1.90;;
34236;SDS011;20501;45.956;13.632;2023-04-03T07:50:19;2.40;;;1.63;;
34236;SDS011;20501;45.956;13.632;2023-04-03T07:52:44;2.95;;;1.70;;
34236;SDS011;20501;45.956;13.632;2023-04-03T07:55:11;2.17;;;1.83;;
34236;SDS011;20501;45.956;13.632;2023-04-03T07:57:36;1.95;;;1.55;;
34236;SDS011;20501;45.956;13.632;2023-04-03T08:00:05;2.03;;;1.65;;
34236;SDS011;20501;45.956;13.632;2023-04-03T08:02:31;2.67;;;1.42;;
34236;SDS011;20501;45.956;13.632;2023-04-03T08:04:59;2.05;;;1.67;;
34236;SDS011;20501;45.956;13.632;2023-04-03T08:07:25;2.25;;;1.20;;
34236;SDS011;20501;45.956;13.632;2023-04-03T08:09:51;1.58;;;1.33;;
34236;SDS011;20501;45.956;13.632;2023-04-03T08:12:16;2.15;;;1.60;;
34236;SDS011;20501;45.956;13.632;2023-04-03T08:14:42;3.85;;;1.63;;
34236;SDS011;20501;45.956;13.632;2023-04-03T08:17:08;2.10;;;1.58;;
34236;SDS011;20501;45.956;13.632;2023-04-03T08:19:36;2.45;;;1.90;;
34236;SDS011;20501;45.956;13.632;2023-04-03T08:22:02;1.83;;;1.55;;
34236;SDS011;20501;45.956;13.632;2023-04-03T08:24:30;2.15;;;1.60;;
34236;SDS011;20501;45.956;13.632;2023-04-03T08:26:56;2.03;;;1.53;;
34236;SDS011;20501;45.956;13.632;2023-04-03T08:29:21;2.15;;;1.60;;
34236;SDS011;20501;45.956;13.632;2023-04-03T08:31:47;2.05;;;1.33;;
34236;SDS011;20501;45.956;13.632;2023-04-03T08:34:14;3.60;;;1.88;;
34236;SDS011;20501;45.956;13.632;2023-04-03T08:36:40;2.00;;;1.38;;
34236;SDS011;20501;45.956;13.632;2023-04-03T08:39:06;5.28;;;1.70;;
34236;SDS011;20501;45.956;13.632;2023-04-03T08:41:36;2.58;;;1.48;;
34236;SDS011;20501;45.956;13.632;2023-04-03T08:46:51;2.42;;;1.83;;
34236;SDS011;20501;45.956;13.632;2023-04-03T08:49:21;3.53;;;1.97;;
34236;SDS011;20501;45.956;13.632;2023-04-03T08:51:51;2.70;;;1.90;;
34236;SDS011;20501;45.956;13.632;2023-04-03T08:54:28;2.77;;;1.77;;
34236;SDS011;20501;45.956;13.632;2023-04-03T08:56:58;3.00;;;1.83;;
34236;SDS011;20501;45.956;13.632;2023-04-03T08:59:28;2.10;;;1.40;;
34236;SDS011;20501;45.956;13.632;2023-04-03T09:01:57;2.70;;;1.58;;
34236;SDS011;20501;45.956;13.632;2023-04-03T09:04:27;1.77;;;1.38;;
34236;SDS011;20501;45.956;13.632;2023-04-03T09:06:58;1.42;;;1.33;;
34236;SDS011;20501;45.956;13.632;2023-04-03T09:09:39;2.58;;;1.60;;
34236;SDS011;20501;45.956;13.632;2023-04-03T09:12:25;2.00;;;1.65;;
34236;SDS011;20501;45.956;13.632;2023-04-03T09:15:11;2.53;;;1.70;;
34236;SDS011;20501;45.956;13.632;2023-04-03T09:23:13;1.88;;;1.48;;
34236;SDS011;20501;45.956;13.632;2023-04-03T09:25:46;1.60;;;1.50;;
34236;SDS011;20501;45.956;13.632;2023-04-03T09:28:12;2.05;;;1.63;;
34236;SDS011;20501;45.956;13.632;2023-04-03T09:30:38;2.05;;;1.40;;
34236;SDS011;20501;45.956;13.632;2023-04-03T09:33:04;9.48;;;5.07;;
34236;SDS011;20501;45.956;13.632;2023-04-03T09:35:31;2.00;;;1.73;;
34236;SDS011;20501;45.956;13.632;2023-04-03T09:41:03;1.33;;;1.10;;
34236;SDS011;20501;45.956;13.632;2023-04-03T09:43:30;1.15;;;1.05;;
34236;SDS011;20501;45.956;13.632;2023-04-03T09:46:15;4.18;;;2.00;;
34236;SDS011;20501;45.956;13.632;2023-04-03T09:48:57;2.75;;;1.80;;
34236;SDS011;20501;45.956;13.632;2023-04-03T09:51:28;1.33;;;1.20;;
34236;SDS011;20501;45.956;13.632;2023-04-03T09:53:54;2.15;;;1.40;;
34236;SDS011;20501;45.956;13.632;2023-04-03T10:01:28;1.83;;;1.40;;
34236;SDS011;20501;45.956;13.632;2023-04-03T10:06:39;3.38;;;1.42;;
34236;SDS011;20501;45.956;13.632;2023-04-03T10:09:21;2.17;;;1.55;;
34236;SDS011;20501;45.956;13.632;2023-04-03T10:14:38;2.22;;;1.38;;
34236;SDS011;20501;45.956;13.632;2023-04-03T10:17:21;2.13;;;1.30;;
34236;SDS011;20501;45.956;13.632;2023-04-03T10:24:56;2.70;;;1.80;;
34236;SDS011;20501;45.956;13.632;2023-04-03T10:30:25;1.77;;;1.27;;
34236;SDS011;20501;45.956;13.632;2023-04-03T10:46:44;6.43;;;1.80;;
34236;SDS011;20501;45.956;13.632;2023-04-03T10:49:18;2.05;;;1.25;;
34236;SDS011;20501;45.956;13.632;2023-04-03T10:57:31;1.92;;;1.17;;
34236;SDS011;20501;45.956;13.632;2023-04-03T10:59:58;2.20;;;0.90;;
34236;SDS011;20501;45.956;13.632;2023-04-03T11:02:33;2.03;;;1.15;;
34236;SDS011;20501;45.956;13.632;2023-04-03T11:05:06;1.48;;;1.08;;
34236;SDS011;20501;45.956;13.632;2023-04-03T11:07:42;1.17;;;0.90;;
34236;SDS011;20501;45.956;13.632;2023-04-03T11:10:14;1.42;;;1.13;;
34236;SDS011;20501;45.956;13.632;2023-04-03T11:12:51;1.77;;;1.13;;
34236;SDS011;20501;45.956;13.632;2023-04-03T11:15:21;3.80;;;1.20;;
34236;SDS011;20501;45.956;13.632;2023-04-03T11:17:50;1.70;;;1.00;;
34236;SDS011;20501;45.956;13.632;2023-04-03T11:20:24;1.55;;;1.15;;
34236;SDS011;20501;45.956;13.632;2023-04-03T11:23:20;1.40;;;1.13;;
34236;SDS011;20501;45.956;13.632;2023-04-03T11:25:51;1.23;;;0.90;;
34236;SDS011;20501;45.956;13.632;2023-04-03T11:28:19;1.27;;;1.10;;
34236;SDS011;20501;45.956;13.632;2023-04-03T11:35:42;1.98;;;1.10;;
34236;SDS011;20501;45.956;13.632;2023-04-03T11:38:13;1.02;;;0.93;;
34236;SDS011;20501;45.956;13.632;2023-04-03T11:40:47;1.00;;;0.90;;
34236;SDS011;20501;45.956;13.632;2023-04-03T11:43:25;1.25;;;1.00;;
34236;SDS011;20501;45.956;13.632;2023-04-03T11:46:01;1.55;;;1.27;;
34236;SDS011;20501;45.956;13.632;2023-04-03T11:50:59;1.17;;;0.80;;
34236;SDS011;20501;45.956;13.632;2023-04-03T11:53:31;1.17;;;0.95;;
34236;SDS011;20501;45.956;13.632;2023-04-03T12:13:37;0.93;;;0.68;;
34236;SDS011;20501;45.956;13.632;2023-04-03T12:16:25;1.98;;;1.10;;
34236;SDS011;20501;45.956;13.632;2023-04-03T12:21:20;1.75;;;1.00;;
34236;SDS011;20501;45.956;13.632;2023-04-03T12:26:42;1.77;;;1.08;;
34236;SDS011;20501;45.956;13.632;2023-04-03T12:31:55;1.02;;;0.90;;
34236;SDS011;20501;45.956;13.632;2023-04-03T12:37:39;1.60;;;0.80;;
34236;SDS011;20501;45.956;13.632;2023-04-03T12:45:51;0.93;;;0.80;;
34236;SDS011;20501;45.956;13.632;2023-04-03T12:48:18;1.00;;;0.80;;
34236;SDS011;20501;45.956;13.632;2023-04-03T12:50:50;0.68;;;0.68;;
34236;SDS011;20501;45.956;13.632;2023-04-03T12:53:25;3.00;;;1.00;;
34236;SDS011;20501;45.956;13.632;2023-04-03T12:56:22;1.23;;;0.70;;
34236;SDS011;20501;45.956;13.632;2023-04-03T12:58:50;0.77;;;0.63;;
34236;SDS011;20501;45.956;13.632;2023-04-03T13:01:17;0.70;;;0.70;;
34236;SDS011;20501;45.956;13.632;2023-04-03T13:04:04;1.10;;;0.80;;
34236;SDS011;20501;45.956;13.632;2023-04-03T13:06:40;3.03;;;1.30;;
34236;SDS011;20501;45.956;13.632;2023-04-03T13:09:40;0.77;;;0.63;;
34236;SDS011;20501;45.956;13.632;2023-04-03T13:12:12;0.80;;;0.70;;
34236;SDS011;20501;45.956;13.632;2023-04-03T13:14:39;1.27;;;0.90;;
34236;SDS011;20501;45.956;13.632;2023-04-03T13:17:15;1.13;;;0.80;;
34236;SDS011;20501;45.956;13.632;2023-04-03T13:19:41;1.05;;;0.80;;
34236;SDS011;20501;45.956;13.632;2023-04-03T13:22:08;2.55;;;0.93;;
34236;SDS011;20501;45.956;13.632;2023-04-03T13:24:49;1.08;;;0.77;;
34236;SDS011;20501;45.956;13.632;2023-04-03T13:27:16;1.00;;;0.88;;
34236;SDS011;20501;45.956;13.632;2023-04-03T13:29:43;1.08;;;0.90;;
34236;SDS011;20501;45.956;13.632;2023-04-03T13:32:17;1.13;;;0.85;;
34236;SDS011;20501;45.956;13.632;2023-04-03T13:34:45;1.20;;;0.73;;
34236;SDS011;20501;45.956;13.632;2023-04-03T13:37:21;0.95;;;0.93;;
34236;SDS011;20501;45.956;13.632;2023-04-03T13:42:31;1.98;;;0.75;;
34236;SDS011;20501;45.956;13.632;2023-04-03T13:47:43;2.22;;;1.10;;
34236;SDS011;20501;45.956;13.632;2023-04-03T13:50:23;2.65;;;0.75;;
34236;SDS011;20501;45.956;13.632;2023-04-03T13:53:00;1.40;;;0.98;;
34236;SDS011;20501;45.956;13.632;2023-04-03T13:55:32;1.10;;;1.00;;
34236;SDS011;20501;45.956;13.632;2023-04-03T13:58:16;1.60;;;0.70;;
34236;SDS011;20501;45.956;13.632;2023-04-03T14:00:48;1.02;;;0.80;;
34236;SDS011;20501;45.956;13.632;2023-04-03T14:03:26;1.20;;;0.80;;
34236;SDS011;20501;45.956;13.632;2023-04-03T14:05:58;1.88;;;1.05;;
34236;SDS011;20501;45.956;13.632;2023-04-03T14:08:26;1.40;;;0.85;;
34236;SDS011;20501;45.956;13.632;2023-04-03T14:10:52;0.60;;;0.60;;
34236;SDS011;20501;45.956;13.632;2023-04-03T14:13:18;0.57;;;0.55;;
34236;SDS011;20501;45.956;13.632;2023-04-03T14:15:45;4.85;;;1.23;;
34236;SDS011;20501;45.956;13.632;2023-04-03T14:18:14;3.70;;;0.90;;
34236;SDS011;20501;45.956;13.632;2023-04-03T14:20:42;0.88;;;0.77;;
34236;SDS011;20501;45.956;13.632;2023-04-03T14:23:07;1.40;;;0.85;;
34236;SDS011;20501;45.956;13.632;2023-04-03T14:25:33;0.85;;;0.70;;
34236;SDS011;20501;45.956;13.632;2023-04-03T14:27:59;1.02;;;0.90;;
34236;SDS011;20501;45.956;13.632;2023-04-03T14:30:29;1.75;;;0.80;;
34236;SDS011;20501;45.956;13.632;2023-04-03T14:32:56;0.70;;;0.70;;
34236;SDS011;20501;45.956;13.632;2023-04-03T14:35:22;0.63;;;0.63;;
34236;SDS011;20501;45.956;13.632;2023-04-03T14:37:49;1.52;;;1.00;;
34236;SDS011;20501;45.956;13.632;2023-04-03T14:40:18;0.63;;;0.63;;
34236;SDS011;20501;45.956;13.632;2023-04-03T14:42:48;0.75;;;0.65;;
34236;SDS011;20501;45.956;13.632;2023-04-03T14:45:13;1.80;;;0.80;;
34236;SDS011;20501;45.956;13.632;2023-04-03T14:48:02;1.00;;;0.90;;
34236;SDS011;20501;45.956;13.632;2023-04-03T14:50:26;2.20;;;0.90;;
34236;SDS011;20501;45.956;13.632;2023-04-03T14:52:54;2.67;;;0.90;;
34236;SDS011;20501;45.956;13.632;2023-04-03T14:55:23;1.27;;;0.85;;
34236;SDS011;20501;45.956;13.632;2023-04-03T14:57:49;0.95;;;0.75;;
34236;SDS011;20501;45.956;13.632;2023-04-03T15:00:19;2.30;;;1.00;;
34236;SDS011;20501;45.956;13.632;2023-04-03T15:02:46;2.15;;;1.02;;
34236;SDS011;20501;45.956;13.632;2023-04-03T15:05:12;1.50;;;0.88;;
34236;SDS011;20501;45.956;13.632;2023-04-03T15:07:40;1.23;;;0.80;;
34236;SDS011;20501;45.956;13.632;2023-04-03T15:12:39;1.67;;;0.90;;
34236;SDS011;20501;45.956;13.632;2023-04-03T15:15:05;1.48;;;0.95;;
34236;SDS011;20501;45.956;13.632;2023-04-03T15:17:31;3.20;;;1.00;;
34236;SDS011;20501;45.956;13.632;2023-04-03T15:19:56;3.38;;;1.60;;
34236;SDS011;20501;45.956;13.632;2023-04-03T15:22:23;1.52;;;1.02;;
34236;SDS011;20501;45.956;13.632;2023-04-03T15:24:49;1.17;;;0.90;;
34236;SDS011;20501;45.956;13.632;2023-04-03T15:27:14;5.25;;;1.20;;
34236;SDS011;20501;45.956;13.632;2023-04-03T15:29:41;3.08;;;1.10;;
34236;SDS011;20501;45.956;13.632;2023-04-03T15:32:07;1.55;;;0.98;;
34236;SDS011;20501;45.956;13.632;2023-04-03T15:34:34;2.50;;;1.15;;
34236;SDS011;20501;45.956;13.632;2023-04-03T15:37:00;1.17;;;0.82;;
34236;SDS011;20501;45.956;13.632;2023-04-03T15:39:26;2.38;;;1.00;;
34236;SDS011;20501;45.956;13.632;2023-04-03T15:41:51;1.75;;;1.10;;
34236;SDS011;20501;45.956;13.632;2023-04-03T15:46:44;3.65;;;1.13;;
34236;SDS011;20501;45.956;13.632;2023-04-03T15:51:37;1.88;;;1.08;;
34236;SDS011;20501;45.956;13.632;2023-04-03T15:54:02;3.33;;;1.17;;
34236;SDS011;20501;45.956;13.632;2023-04-03T15:56:27;1.60;;;1.33;;
34236;SDS011;20501;45.956;13.632;2023-04-03T15:58:53;3.40;;;1.20;;
34236;SDS011;20501;45.956;13.632;2023-04-03T16:01:18;2.55;;;1.20;;
34236;SDS011;20501;45.956;13.632;2023-04-03T16:03:44;3.67;;;1.20;;
34236;SDS011;20501;45.956;13.632;2023-04-03T16:06:13;2.55;;;1.35;;
34236;SDS011;20501;45.956;13.632;2023-04-03T16:08:40;2.75;;;1.55;;
34236;SDS011;20501;45.956;13.632;2023-04-03T16:11:06;3.47;;;1.35;;
34236;SDS011;20501;45.956;13.632;2023-04-03T16:13:31;1.58;;;1.30;;
34236;SDS011;20501;45.956;13.632;2023-04-03T16:15:58;2.28;;;1.40;;
34236;SDS011;20501;45.956;13.632;2023-04-03T16:18:25;4.60;;;1.10;;
34236;SDS011;20501;45.956;13.632;2023-04-03T16:20:50;1.80;;;1.17;;
34236;SDS011;20501;45.956;13.632;2023-04-03T16:23:16;1.58;;;1.42;;
34236;SDS011;20501;45.956;13.632;2023-04-03T16:25:41;2.38;;;1.23;;
34236;SDS011;20501;45.956;13.632;2023-04-03T16:28:11;1.90;;;1.42;;
34236;SDS011;20501;45.956;13.632;2023-04-03T16:30:43;1.55;;;1.10;;
34236;SDS011;20501;45.956;13.632;2023-04-03T16:33:10;2.20;;;1.17;;
34236;SDS011;20501;45.956;13.632;2023-04-03T16:35:37;1.30;;;1.20;;